sensor_id;sensor_type;location;lat;lon;timestamp;P1;durP1;ratioP1;P2;durP2;ratioP2
32319;SDS011;19080;51.750;5.888;2022-12-07T00:01:40;11.85;;;9.75;;
32319;SDS011;19080;51.750;5.888;2022-12-07T00:04:12;11.30;;;8.73;;
32319;SDS011;19080;51.750;5.888;2022-12-07T00:06:42;13.38;;;9.73;;
32319;SDS011;19080;51.750;5.888;2022-12-07T00:09:12;12.73;;;10.23;;
32319;SDS011;19080;51.750;5.888;2022-12-07T00:11:40;12.32;;;9.88;;
32319;SDS011;19080;51.750;5.888;2022-12-07T00:14:07;10.80;;;9.27;;
32319;SDS011;19080;51.750;5.888;2022-12-07T00:16:37;11.55;;;9.23;;
32319;SDS011;19080;51.750;5.888;2022-12-07T00:19:04;10.95;;;9.80;;
32319;SDS011;19080;51.750;5.888;2022-12-07T00:21:32;12.88;;;10.20;;
32319;SDS011;19080;51.750;5.888;2022-12-07T00:24:04;12.50;;;10.10;;
32319;SDS011;19080;51.750;5.888;2022-12-07T00:26:36;13.43;;;9.77;;
32319;SDS011;19080;51.750;5.888;2022-12-07T00:29:26;12.50;;;10.13;;
32319;SDS011;19080;51.750;5.888;2022-12-07T00:31:51;9.77;;;8.18;;
32319;SDS011;19080;51.750;5.888;2022-12-07T00:34:19;8.98;;;8.02;;
32319;SDS011;19080;51.750;5.888;2022-12-07T00:36:47;12.43;;;9.50;;
32319;SDS011;19080;51.750;5.888;2022-12-07T00:39:15;11.00;;;9.27;;
32319;SDS011;19080;51.750;5.888;2022-12-07T00:41:41;10.27;;;8.68;;
32319;SDS011;19080;51.750;5.888;2022-12-07T00:44:08;10.93;;;9.18;;
32319;SDS011;19080;51.750;5.888;2022-12-07T00:46:35;9.63;;;8.00;;
32319;SDS011;19080;51.750;5.888;2022-12-07T00:49:01;9.57;;;8.57;;
32319;SDS011;19080;51.750;5.888;2022-12-07T00:51:28;10.02;;;9.02;;
32319;SDS011;19080;51.750;5.888;2022-12-07T00:53:54;9.82;;;8.82;;
32319;SDS011;19080;51.750;5.888;2022-12-07T00:56:22;11.32;;;8.40;;
32319;SDS011;19080;51.750;5.888;2022-12-07T00:58:51;9.48;;;8.00;;
32319;SDS011;19080;51.750;5.888;2022-12-07T01:01:27;11.48;;;8.98;;
32319;SDS011;19080;51.750;5.888;2022-12-07T01:03:55;11.13;;;8.60;;
32319;SDS011;19080;51.750;5.888;2022-12-07T01:06:22;9.35;;;8.35;;
32319;SDS011;19080;51.750;5.888;2022-12-07T01:08:50;9.20;;;8.25;;
32319;SDS011;19080;51.750;5.888;2022-12-07T01:11:18;10.98;;;7.75;;
32319;SDS011;19080;51.750;5.888;2022-12-07T01:13:46;10.30;;;7.85;;
32319;SDS011;19080;51.750;5.888;2022-12-07T01:16:14;8.82;;;7.28;;
32319;SDS011;19080;51.750;5.888;2022-12-07T01:18:42;10.07;;;7.72;;
32319;SDS011;19080;51.750;5.888;2022-12-07T01:21:19;8.63;;;7.60;;
32319;SDS011;19080;51.750;5.888;2022-12-07T01:23:48;8.80;;;7.20;;
32319;SDS011;19080;51.750;5.888;2022-12-07T01:26:17;10.65;;;7.47;;
32319;SDS011;19080;51.750;5.888;2022-12-07T01:28:46;10.70;;;8.18;;
32319;SDS011;19080;51.750;5.888;2022-12-07T01:31:13;7.75;;;6.47;;
32319;SDS011;19080;51.750;5.888;2022-12-07T01:33:46;7.90;;;7.03;;
32319;SDS011;19080;51.750;5.888;2022-12-07T01:36:19;7.57;;;6.68;;
32319;SDS011;19080;51.750;5.888;2022-12-07T01:38:48;7.55;;;6.43;;
32319;SDS011;19080;51.750;5.888;2022-12-07T01:41:20;7.22;;;6.53;;
32319;SDS011;19080;51.750;5.888;2022-12-07T01:44:07;8.32;;;6.32;;
32319;SDS011;19080;51.750;5.888;2022-12-07T01:46:36;9.93;;;7.63;;
32319;SDS011;19080;51.750;5.888;2022-12-07T01:49:04;7.57;;;6.30;;
32319;SDS011;19080;51.750;5.888;2022-12-07T01:51:34;8.07;;;7.10;;
32319;SDS011;19080;51.750;5.888;2022-12-07T01:54:03;9.05;;;6.47;;
32319;SDS011;19080;51.750;5.888;2022-12-07T01:56:30;8.20;;;6.40;;
32319;SDS011;19080;51.750;5.888;2022-12-07T01:58:59;9.65;;;8.15;;
32319;SDS011;19080;51.750;5.888;2022-12-07T02:01:26;9.85;;;7.10;;
32319;SDS011;19080;51.750;5.888;2022-12-07T02:03:54;8.18;;;6.75;;
32319;SDS011;19080;51.750;5.888;2022-12-07T02:06:22;9.85;;;7.35;;
32319;SDS011;19080;51.750;5.888;2022-12-07T02:08:51;12.20;;;7.13;;
32319;SDS011;19080;51.750;5.888;2022-12-07T02:11:20;9.02;;;6.78;;
32319;SDS011;19080;51.750;5.888;2022-12-07T02:13:47;8.93;;;6.63;;
32319;SDS011;19080;51.750;5.888;2022-12-07T02:16:18;8.32;;;7.00;;
32319;SDS011;19080;51.750;5.888;2022-12-07T02:32:23;8.77;;;7.82;;
32319;SDS011;19080;51.750;5.888;2022-12-07T02:34:59;9.43;;;7.45;;
32319;SDS011;19080;51.750;5.888;2022-12-07T02:37:34;11.35;;;7.05;;
32319;SDS011;19080;51.750;5.888;2022-12-07T02:40:07;8.07;;;7.22;;
32319;SDS011;19080;51.750;5.888;2022-12-07T02:42:40;9.38;;;7.53;;
32319;SDS011;19080;51.750;5.888;2022-12-07T02:45:13;10.30;;;8.10;;
32319;SDS011;19080;51.750;5.888;2022-12-07T02:47:43;12.35;;;9.23;;
32319;SDS011;19080;51.750;5.888;2022-12-07T02:50:13;9.05;;;8.13;;
32319;SDS011;19080;51.750;5.888;2022-12-07T02:52:41;10.52;;;8.30;;
32319;SDS011;19080;51.750;5.888;2022-12-07T02:55:07;10.02;;;7.75;;
32319;SDS011;19080;51.750;5.888;2022-12-07T03:00:20;9.75;;;7.72;;
32319;SDS011;19080;51.750;5.888;2022-12-07T03:05:25;13.38;;;9.13;;
32319;SDS011;19080;51.750;5.888;2022-12-07T03:10:56;9.82;;;8.18;;
32319;SDS011;19080;51.750;5.888;2022-12-07T03:13:28;14.90;;;10.20;;
32319;SDS011;19080;51.750;5.888;2022-12-07T03:18:48;14.52;;;11.23;;
32319;SDS011;19080;51.750;5.888;2022-12-07T03:21:20;17.88;;;10.23;;
32319;SDS011;19080;51.750;5.888;2022-12-07T03:23:54;14.32;;;10.20;;
32319;SDS011;19080;51.750;5.888;2022-12-07T03:26:24;14.18;;;9.77;;
32319;SDS011;19080;51.750;5.888;2022-12-07T03:28:58;12.27;;;9.23;;
32319;SDS011;19080;51.750;5.888;2022-12-07T03:31:32;10.15;;;8.30;;
32319;SDS011;19080;51.750;5.888;2022-12-07T03:36:55;14.65;;;10.75;;
32319;SDS011;19080;51.750;5.888;2022-12-07T03:39:55;17.88;;;12.38;;
32319;SDS011;19080;51.750;5.888;2022-12-07T03:42:24;15.68;;;12.13;;
32319;SDS011;19080;51.750;5.888;2022-12-07T03:44:52;13.65;;;10.38;;
32319;SDS011;19080;51.750;5.888;2022-12-07T03:47:22;17.02;;;11.85;;
32319;SDS011;19080;51.750;5.888;2022-12-07T03:50:03;15.82;;;11.27;;
32319;SDS011;19080;51.750;5.888;2022-12-07T03:57:49;16.90;;;11.95;;
32319;SDS011;19080;51.750;5.888;2022-12-07T04:00:19;12.18;;;9.60;;
32319;SDS011;19080;51.750;5.888;2022-12-07T04:02:48;15.07;;;10.57;;
32319;SDS011;19080;51.750;5.888;2022-12-07T04:05:18;17.20;;;12.27;;
32319;SDS011;19080;51.750;5.888;2022-12-07T04:07:45;14.68;;;11.48;;
32319;SDS011;19080;51.750;5.888;2022-12-07T04:10:12;13.07;;;9.77;;
32319;SDS011;19080;51.750;5.888;2022-12-07T04:12:39;11.05;;;9.05;;
32319;SDS011;19080;51.750;5.888;2022-12-07T04:15:07;14.95;;;11.45;;
32319;SDS011;19080;51.750;5.888;2022-12-07T04:17:34;10.82;;;8.65;;
32319;SDS011;19080;51.750;5.888;2022-12-07T04:20:01;14.38;;;9.38;;
32319;SDS011;19080;51.750;5.888;2022-12-07T04:22:28;12.40;;;7.85;;
32319;SDS011;19080;51.750;5.888;2022-12-07T04:24:55;13.77;;;8.95;;
32319;SDS011;19080;51.750;5.888;2022-12-07T04:27:22;11.90;;;7.38;;
32319;SDS011;19080;51.750;5.888;2022-12-07T04:29:49;10.77;;;7.65;;
32319;SDS011;19080;51.750;5.888;2022-12-07T04:32:15;12.85;;;9.27;;
32319;SDS011;19080;51.750;5.888;2022-12-07T04:34:42;11.77;;;8.43;;
32319;SDS011;19080;51.750;5.888;2022-12-07T04:37:09;15.13;;;8.48;;
32319;SDS011;19080;51.750;5.888;2022-12-07T04:39:35;11.20;;;7.88;;
32319;SDS011;19080;51.750;5.888;2022-12-07T04:42:02;8.40;;;6.90;;
32319;SDS011;19080;51.750;5.888;2022-12-07T04:44:29;10.48;;;7.18;;
32319;SDS011;19080;51.750;5.888;2022-12-07T04:46:56;13.07;;;8.13;;
32319;SDS011;19080;51.750;5.888;2022-12-07T04:49:23;9.43;;;7.32;;
32319;SDS011;19080;51.750;5.888;2022-12-07T04:51:51;8.75;;;6.88;;
32319;SDS011;19080;51.750;5.888;2022-12-07T04:54:17;9.13;;;6.03;;
32319;SDS011;19080;51.750;5.888;2022-12-07T04:56:44;9.32;;;6.40;;
32319;SDS011;19080;51.750;5.888;2022-12-07T04:59:11;8.23;;;5.75;;
32319;SDS011;19080;51.750;5.888;2022-12-07T05:01:39;7.22;;;6.25;;
32319;SDS011;19080;51.750;5.888;2022-12-07T05:04:06;11.23;;;6.70;;
32319;SDS011;19080;51.750;5.888;2022-12-07T05:06:34;6.80;;;5.72;;
32319;SDS011;19080;51.750;5.888;2022-12-07T05:09:01;6.70;;;5.30;;
32319;SDS011;19080;51.750;5.888;2022-12-07T05:11:29;6.78;;;5.60;;
32319;SDS011;19080;51.750;5.888;2022-12-07T05:14:06;8.40;;;5.68;;
32319;SDS011;19080;51.750;5.888;2022-12-07T05:16:38;7.50;;;4.40;;
32319;SDS011;19080;51.750;5.888;2022-12-07T05:19:06;6.78;;;5.60;;
32319;SDS011;19080;51.750;5.888;2022-12-07T05:21:33;5.97;;;4.55;;
32319;SDS011;19080;51.750;5.888;2022-12-07T05:24:00;7.47;;;4.82;;
32319;SDS011;19080;51.750;5.888;2022-12-07T05:26:28;5.40;;;4.25;;
32319;SDS011;19080;51.750;5.888;2022-12-07T05:28:55;8.27;;;5.28;;
32319;SDS011;19080;51.750;5.888;2022-12-07T05:31:22;6.20;;;4.80;;
32319;SDS011;19080;51.750;5.888;2022-12-07T05:33:50;7.95;;;4.55;;
32319;SDS011;19080;51.750;5.888;2022-12-07T05:36:17;6.45;;;4.63;;
32319;SDS011;19080;51.750;5.888;2022-12-07T05:38:44;6.38;;;4.50;;
32319;SDS011;19080;51.750;5.888;2022-12-07T05:41:12;6.85;;;5.00;;
32319;SDS011;19080;51.750;5.888;2022-12-07T05:44:00;10.32;;;5.30;;
32319;SDS011;19080;51.750;5.888;2022-12-07T05:46:27;8.80;;;5.57;;
32319;SDS011;19080;51.750;5.888;2022-12-07T05:48:54;10.95;;;5.45;;
32319;SDS011;19080;51.750;5.888;2022-12-07T05:51:21;6.72;;;5.30;;
32319;SDS011;19080;51.750;5.888;2022-12-07T05:53:47;7.28;;;5.07;;
32319;SDS011;19080;51.750;5.888;2022-12-07T05:56:14;7.88;;;4.90;;
32319;SDS011;19080;51.750;5.888;2022-12-07T05:58:41;7.47;;;5.63;;
32319;SDS011;19080;51.750;5.888;2022-12-07T06:01:26;6.45;;;5.05;;
32319;SDS011;19080;51.750;5.888;2022-12-07T06:03:53;7.05;;;5.28;;
32319;SDS011;19080;51.750;5.888;2022-12-07T06:06:19;8.18;;;5.25;;
32319;SDS011;19080;51.750;5.888;2022-12-07T06:08:46;11.77;;;7.22;;
32319;SDS011;19080;51.750;5.888;2022-12-07T06:11:13;7.85;;;6.15;;
32319;SDS011;19080;51.750;5.888;2022-12-07T06:13:58;13.27;;;7.78;;
32319;SDS011;19080;51.750;5.888;2022-12-07T06:16:24;9.40;;;7.65;;
32319;SDS011;19080;51.750;5.888;2022-12-07T06:18:51;8.43;;;7.00;;
32319;SDS011;19080;51.750;5.888;2022-12-07T06:21:18;8.80;;;7.30;;
32319;SDS011;19080;51.750;5.888;2022-12-07T06:23:44;7.60;;;6.05;;
32319;SDS011;19080;51.750;5.888;2022-12-07T06:26:11;9.13;;;6.85;;
32319;SDS011;19080;51.750;5.888;2022-12-07T06:28:38;7.80;;;6.10;;
32319;SDS011;19080;51.750;5.888;2022-12-07T06:31:06;7.07;;;5.43;;
32319;SDS011;19080;51.750;5.888;2022-12-07T06:33:39;11.35;;;6.65;;
32319;SDS011;19080;51.750;5.888;2022-12-07T06:36:07;6.25;;;5.28;;
32319;SDS011;19080;51.750;5.888;2022-12-07T06:38:34;6.63;;;5.15;;
32319;SDS011;19080;51.750;5.888;2022-12-07T06:41:01;7.75;;;5.35;;
32319;SDS011;19080;51.750;5.888;2022-12-07T06:43:27;5.45;;;4.80;;
32319;SDS011;19080;51.750;5.888;2022-12-07T06:45:54;7.05;;;4.78;;
32319;SDS011;19080;51.750;5.888;2022-12-07T06:48:21;6.70;;;5.30;;
32319;SDS011;19080;51.750;5.888;2022-12-07T06:50:48;8.68;;;5.50;;
32319;SDS011;19080;51.750;5.888;2022-12-07T06:53:20;6.87;;;6.13;;
32319;SDS011;19080;51.750;5.888;2022-12-07T06:55:47;7.00;;;5.40;;
32319;SDS011;19080;51.750;5.888;2022-12-07T06:58:15;5.60;;;4.53;;
32319;SDS011;19080;51.750;5.888;2022-12-07T07:00:42;8.80;;;4.93;;
32319;SDS011;19080;51.750;5.888;2022-12-07T07:03:09;5.50;;;4.60;;
32319;SDS011;19080;51.750;5.888;2022-12-07T07:05:36;5.35;;;4.85;;
32319;SDS011;19080;51.750;5.888;2022-12-07T07:08:03;6.32;;;4.28;;
32319;SDS011;19080;51.750;5.888;2022-12-07T07:10:47;6.78;;;4.18;;
32319;SDS011;19080;51.750;5.888;2022-12-07T07:13:14;5.85;;;4.03;;
32319;SDS011;19080;51.750;5.888;2022-12-07T07:15:40;5.70;;;4.15;;
32319;SDS011;19080;51.750;5.888;2022-12-07T07:18:07;4.90;;;4.32;;
32319;SDS011;19080;51.750;5.888;2022-12-07T07:20:34;5.50;;;4.05;;
32319;SDS011;19080;51.750;5.888;2022-12-07T07:23:00;7.03;;;4.63;;
32319;SDS011;19080;51.750;5.888;2022-12-07T07:25:27;6.68;;;4.05;;
32319;SDS011;19080;51.750;5.888;2022-12-07T07:27:54;5.60;;;4.15;;
32319;SDS011;19080;51.750;5.888;2022-12-07T07:30:20;4.60;;;3.80;;
32319;SDS011;19080;51.750;5.888;2022-12-07T07:32:47;8.50;;;4.18;;
32319;SDS011;19080;51.750;5.888;2022-12-07T07:35:14;6.65;;;4.38;;
32319;SDS011;19080;51.750;5.888;2022-12-07T07:37:40;6.40;;;3.97;;
32319;SDS011;19080;51.750;5.888;2022-12-07T07:40:07;7.47;;;4.50;;
32319;SDS011;19080;51.750;5.888;2022-12-07T07:42:35;12.10;;;4.10;;
32319;SDS011;19080;51.750;5.888;2022-12-07T07:45:02;5.20;;;3.30;;
32319;SDS011;19080;51.750;5.888;2022-12-07T07:47:29;6.65;;;3.70;;
32319;SDS011;19080;51.750;5.888;2022-12-07T07:49:55;6.38;;;3.50;;
32319;SDS011;19080;51.750;5.888;2022-12-07T07:52:23;4.32;;;3.38;;
32319;SDS011;19080;51.750;5.888;2022-12-07T07:54:50;6.32;;;3.88;;
32319;SDS011;19080;51.750;5.888;2022-12-07T07:57:17;8.45;;;4.30;;
32319;SDS011;19080;51.750;5.888;2022-12-07T07:59:43;6.70;;;4.30;;
32319;SDS011;19080;51.750;5.888;2022-12-07T08:02:14;6.97;;;4.22;;
32319;SDS011;19080;51.750;5.888;2022-12-07T08:04:42;8.27;;;3.88;;
32319;SDS011;19080;51.750;5.888;2022-12-07T08:07:08;6.40;;;3.95;;
32319;SDS011;19080;51.750;5.888;2022-12-07T08:09:36;4.63;;;3.58;;
32319;SDS011;19080;51.750;5.888;2022-12-07T08:12:02;7.57;;;3.58;;
32319;SDS011;19080;51.750;5.888;2022-12-07T08:14:29;4.93;;;3.50;;
32319;SDS011;19080;51.750;5.888;2022-12-07T08:16:56;9.38;;;3.72;;
32319;SDS011;19080;51.750;5.888;2022-12-07T08:19:22;6.32;;;3.20;;
32319;SDS011;19080;51.750;5.888;2022-12-07T08:21:49;5.30;;;3.28;;
32319;SDS011;19080;51.750;5.888;2022-12-07T08:24:16;8.93;;;3.88;;
32319;SDS011;19080;51.750;5.888;2022-12-07T08:26:42;4.32;;;3.28;;
32319;SDS011;19080;51.750;5.888;2022-12-07T08:29:09;5.97;;;3.58;;
32319;SDS011;19080;51.750;5.888;2022-12-07T08:31:36;5.05;;;3.10;;
32319;SDS011;19080;51.750;5.888;2022-12-07T08:34:02;5.45;;;3.28;;
32319;SDS011;19080;51.750;5.888;2022-12-07T08:36:29;7.68;;;3.78;;
32319;SDS011;19080;51.750;5.888;2022-12-07T08:38:56;6.82;;;3.25;;
32319;SDS011;19080;51.750;5.888;2022-12-07T08:41:42;6.57;;;3.55;;
32319;SDS011;19080;51.750;5.888;2022-12-07T08:44:09;7.72;;;4.07;;
32319;SDS011;19080;51.750;5.888;2022-12-07T08:46:37;10.75;;;4.65;;
32319;SDS011;19080;51.750;5.888;2022-12-07T08:49:11;12.53;;;3.93;;
32319;SDS011;19080;51.750;5.888;2022-12-07T08:51:40;6.20;;;3.60;;
32319;SDS011;19080;51.750;5.888;2022-12-07T08:54:08;8.77;;;3.38;;
32319;SDS011;19080;51.750;5.888;2022-12-07T08:56:37;7.43;;;4.05;;
32319;SDS011;19080;51.750;5.888;2022-12-07T08:59:04;14.30;;;6.18;;
32319;SDS011;19080;51.750;5.888;2022-12-07T09:01:32;10.27;;;5.18;;
32319;SDS011;19080;51.750;5.888;2022-12-07T09:03:59;13.10;;;5.15;;
32319;SDS011;19080;51.750;5.888;2022-12-07T09:06:26;8.90;;;5.18;;
32319;SDS011;19080;51.750;5.888;2022-12-07T09:08:54;10.45;;;5.70;;
32319;SDS011;19080;51.750;5.888;2022-12-07T09:11:24;10.25;;;5.38;;
32319;SDS011;19080;51.750;5.888;2022-12-07T09:13:54;7.88;;;4.75;;
32319;SDS011;19080;51.750;5.888;2022-12-07T09:16:21;11.48;;;5.40;;
32319;SDS011;19080;51.750;5.888;2022-12-07T09:18:48;10.30;;;5.03;;
32319;SDS011;19080;51.750;5.888;2022-12-07T09:21:15;10.63;;;5.05;;
32319;SDS011;19080;51.750;5.888;2022-12-07T09:23:41;10.25;;;4.82;;
32319;SDS011;19080;51.750;5.888;2022-12-07T09:26:09;7.85;;;4.78;;
32319;SDS011;19080;51.750;5.888;2022-12-07T09:28:36;9.00;;;4.65;;
32319;SDS011;19080;51.750;5.888;2022-12-07T09:31:04;9.25;;;3.95;;
32319;SDS011;19080;51.750;5.888;2022-12-07T09:33:54;9.60;;;4.43;;
32319;SDS011;19080;51.750;5.888;2022-12-07T09:36:24;12.15;;;4.63;;
32319;SDS011;19080;51.750;5.888;2022-12-07T09:38:51;8.73;;;4.90;;
32319;SDS011;19080;51.750;5.888;2022-12-07T09:41:18;9.18;;;4.72;;
32319;SDS011;19080;51.750;5.888;2022-12-07T09:43:45;9.02;;;4.88;;
32319;SDS011;19080;51.750;5.888;2022-12-07T09:46:14;9.20;;;5.05;;
32319;SDS011;19080;51.750;5.888;2022-12-07T09:48:44;9.48;;;4.93;;
32319;SDS011;19080;51.750;5.888;2022-12-07T09:51:13;10.60;;;4.35;;
32319;SDS011;19080;51.750;5.888;2022-12-07T09:53:49;6.72;;;3.60;;
32319;SDS011;19080;51.750;5.888;2022-12-07T09:56:17;11.48;;;3.95;;
32319;SDS011;19080;51.750;5.888;2022-12-07T09:58:45;5.03;;;2.85;;
32319;SDS011;19080;51.750;5.888;2022-12-07T10:01:15;4.68;;;2.55;;
32319;SDS011;19080;51.750;5.888;2022-12-07T10:03:48;8.18;;;3.38;;
32319;SDS011;19080;51.750;5.888;2022-12-07T10:06:18;7.63;;;3.65;;
32319;SDS011;19080;51.750;5.888;2022-12-07T10:08:45;8.80;;;3.53;;
32319;SDS011;19080;51.750;5.888;2022-12-07T10:11:12;9.30;;;3.50;;
32319;SDS011;19080;51.750;5.888;2022-12-07T10:13:41;12.95;;;3.97;;
32319;SDS011;19080;51.750;5.888;2022-12-07T10:18:50;11.05;;;2.92;;
32319;SDS011;19080;51.750;5.888;2022-12-07T10:21:18;9.55;;;2.47;;
32319;SDS011;19080;51.750;5.888;2022-12-07T10:24:02;11.00;;;2.90;;
32319;SDS011;19080;51.750;5.888;2022-12-07T10:26:50;8.05;;;2.92;;
32319;SDS011;19080;51.750;5.888;2022-12-07T10:29:28;7.38;;;2.38;;
32319;SDS011;19080;51.750;5.888;2022-12-07T10:34:28;8.30;;;2.25;;
32319;SDS011;19080;51.750;5.888;2022-12-07T10:39:47;6.43;;;2.10;;
32319;SDS011;19080;51.750;5.888;2022-12-07T10:53:19;6.10;;;2.33;;
32319;SDS011;19080;51.750;5.888;2022-12-07T11:04:15;6.70;;;2.83;;
32319;SDS011;19080;51.750;5.888;2022-12-07T11:06:57;5.03;;;1.98;;
32319;SDS011;19080;51.750;5.888;2022-12-07T11:18:57;8.32;;;2.00;;
32319;SDS011;19080;51.750;5.888;2022-12-07T11:23:46;6.60;;;2.10;;
32319;SDS011;19080;51.750;5.888;2022-12-07T11:26:22;4.03;;;1.80;;
32319;SDS011;19080;51.750;5.888;2022-12-07T11:32:18;9.15;;;5.72;;
32319;SDS011;19080;51.750;5.888;2022-12-07T11:35:00;7.63;;;3.70;;
32319;SDS011;19080;51.750;5.888;2022-12-07T11:37:31;8.35;;;3.42;;
32319;SDS011;19080;51.750;5.888;2022-12-07T11:40:24;6.38;;;2.05;;
32319;SDS011;19080;51.750;5.888;2022-12-07T11:45:29;13.10;;;4.38;;
32319;SDS011;19080;51.750;5.888;2022-12-07T11:48:02;8.35;;;2.80;;
32319;SDS011;19080;51.750;5.888;2022-12-07T11:50:42;11.60;;;5.13;;
32319;SDS011;19080;51.750;5.888;2022-12-07T11:56:09;11.65;;;5.85;;
32319;SDS011;19080;51.750;5.888;2022-12-07T11:58:41;16.13;;;6.88;;
32319;SDS011;19080;51.750;5.888;2022-12-07T12:01:12;15.45;;;7.32;;
32319;SDS011;19080;51.750;5.888;2022-12-07T12:03:42;13.07;;;7.78;;
32319;SDS011;19080;51.750;5.888;2022-12-07T12:06:18;10.02;;;4.43;;
32319;SDS011;19080;51.750;5.888;2022-12-07T12:15:23;7.95;;;2.45;;
32319;SDS011;19080;51.750;5.888;2022-12-07T12:20:46;6.72;;;2.17;;
32319;SDS011;19080;51.750;5.888;2022-12-07T12:26:16;19.20;;;8.73;;
32319;SDS011;19080;51.750;5.888;2022-12-07T12:33:55;12.70;;;5.88;;
32319;SDS011;19080;51.750;5.888;2022-12-07T12:47:04;12.52;;;2.50;;
32319;SDS011;19080;51.750;5.888;2022-12-07T12:50:12;19.73;;;8.27;;
32319;SDS011;19080;51.750;5.888;2022-12-07T12:52:49;24.92;;;10.82;;
32319;SDS011;19080;51.750;5.888;2022-12-07T12:55:25;20.15;;;7.15;;
32319;SDS011;19080;51.750;5.888;2022-12-07T13:00:45;8.40;;;2.10;;
32319;SDS011;19080;51.750;5.888;2022-12-07T13:03:29;12.18;;;4.65;;
32319;SDS011;19080;51.750;5.888;2022-12-07T13:06:17;4.43;;;2.35;;
32319;SDS011;19080;51.750;5.888;2022-12-07T13:08:47;18.77;;;9.93;;
32319;SDS011;19080;51.750;5.888;2022-12-07T13:11:47;6.68;;;3.10;;
32319;SDS011;19080;51.750;5.888;2022-12-07T13:20:00;8.48;;;4.85;;
32319;SDS011;19080;51.750;5.888;2022-12-07T13:27:40;7.38;;;3.35;;
32319;SDS011;19080;51.750;5.888;2022-12-07T13:30:18;6.73;;;3.70;;
32319;SDS011;19080;51.750;5.888;2022-12-07T13:32:54;4.32;;;1.92;;
32319;SDS011;19080;51.750;5.888;2022-12-07T13:37:57;7.85;;;4.10;;
32319;SDS011;19080;51.750;5.888;2022-12-07T13:40:24;5.55;;;3.53;;
32319;SDS011;19080;51.750;5.888;2022-12-07T13:43:01;5.30;;;2.55;;
32319;SDS011;19080;51.750;5.888;2022-12-07T13:45:33;6.10;;;2.60;;
32319;SDS011;19080;51.750;5.888;2022-12-07T13:48:16;10.23;;;2.88;;
32319;SDS011;19080;51.750;5.888;2022-12-07T13:50:52;5.75;;;2.15;;
32319;SDS011;19080;51.750;5.888;2022-12-07T13:53:19;9.90;;;3.42;;
32319;SDS011;19080;51.750;5.888;2022-12-07T13:55:47;6.18;;;2.90;;
32319;SDS011;19080;51.750;5.888;2022-12-07T13:58:19;8.13;;;2.33;;
32319;SDS011;19080;51.750;5.888;2022-12-07T14:00:47;6.10;;;2.22;;
32319;SDS011;19080;51.750;5.888;2022-12-07T14:05:42;5.78;;;2.75;;
32319;SDS011;19080;51.750;5.888;2022-12-07T14:10:38;4.72;;;2.17;;
32319;SDS011;19080;51.750;5.888;2022-12-07T14:16:02;6.90;;;1.95;;
32319;SDS011;19080;51.750;5.888;2022-12-07T14:21:02;6.35;;;1.50;;
32319;SDS011;19080;51.750;5.888;2022-12-07T14:23:31;5.57;;;2.00;;
32319;SDS011;19080;51.750;5.888;2022-12-07T14:26:07;5.22;;;2.58;;
32319;SDS011;19080;51.750;5.888;2022-12-07T14:28:37;11.32;;;3.53;;
32319;SDS011;19080;51.750;5.888;2022-12-07T14:31:22;11.25;;;5.20;;
32319;SDS011;19080;51.750;5.888;2022-12-07T14:33:59;67.40;;;27.02;;
32319;SDS011;19080;51.750;5.888;2022-12-07T14:36:26;56.38;;;24.23;;
32319;SDS011;19080;51.750;5.888;2022-12-07T14:38:52;49.78;;;22.25;;
32319;SDS011;19080;51.750;5.888;2022-12-07T14:41:22;26.50;;;10.80;;
32319;SDS011;19080;51.750;5.888;2022-12-07T14:44:10;7.72;;;4.65;;
32319;SDS011;19080;51.750;5.888;2022-12-07T14:46:57;14.80;;;7.45;;
32319;SDS011;19080;51.750;5.888;2022-12-07T14:49:44;9.88;;;4.97;;
32319;SDS011;19080;51.750;5.888;2022-12-07T14:52:32;8.93;;;2.55;;
32319;SDS011;19080;51.750;5.888;2022-12-07T14:55:28;9.15;;;3.92;;
32319;SDS011;19080;51.750;5.888;2022-12-07T14:57:58;22.88;;;10.98;;
32319;SDS011;19080;51.750;5.888;2022-12-07T15:00:25;29.13;;;14.15;;
32319;SDS011;19080;51.750;5.888;2022-12-07T15:02:54;5.40;;;2.40;;
32319;SDS011;19080;51.750;5.888;2022-12-07T15:05:21;5.40;;;1.65;;
32319;SDS011;19080;51.750;5.888;2022-12-07T15:07:48;10.18;;;7.82;;
32319;SDS011;19080;51.750;5.888;2022-12-07T15:10:17;10.50;;;5.07;;
32319;SDS011;19080;51.750;5.888;2022-12-07T15:12:49;14.05;;;7.35;;
32319;SDS011;19080;51.750;5.888;2022-12-07T15:15:16;9.25;;;4.47;;
32319;SDS011;19080;51.750;5.888;2022-12-07T15:17:43;4.97;;;1.67;;
32319;SDS011;19080;51.750;5.888;2022-12-07T15:20:13;8.43;;;2.65;;
32319;SDS011;19080;51.750;5.888;2022-12-07T15:22:42;8.07;;;2.88;;
32319;SDS011;19080;51.750;5.888;2022-12-07T15:25:12;8.15;;;3.60;;
32319;SDS011;19080;51.750;5.888;2022-12-07T15:27:39;6.43;;;3.20;;
32319;SDS011;19080;51.750;5.888;2022-12-07T15:30:06;25.38;;;10.10;;
32319;SDS011;19080;51.750;5.888;2022-12-07T15:32:33;28.38;;;10.88;;
32319;SDS011;19080;51.750;5.888;2022-12-07T15:35:00;23.23;;;9.77;;
32319;SDS011;19080;51.750;5.888;2022-12-07T15:37:27;43.70;;;17.80;;
32319;SDS011;19080;51.750;5.888;2022-12-07T15:39:54;14.98;;;6.78;;
32319;SDS011;19080;51.750;5.888;2022-12-07T15:42:20;16.90;;;5.03;;
32319;SDS011;19080;51.750;5.888;2022-12-07T15:44:47;4.18;;;2.22;;
32319;SDS011;19080;51.750;5.888;2022-12-07T15:50:24;12.65;;;5.50;;
32319;SDS011;19080;51.750;5.888;2022-12-07T15:52:50;14.00;;;7.90;;
32319;SDS011;19080;51.750;5.888;2022-12-07T15:55:17;8.57;;;4.50;;
32319;SDS011;19080;51.750;5.888;2022-12-07T15:57:43;5.20;;;2.55;;
32319;SDS011;19080;51.750;5.888;2022-12-07T16:00:10;5.13;;;2.13;;
32319;SDS011;19080;51.750;5.888;2022-12-07T16:02:37;8.23;;;3.85;;
32319;SDS011;19080;51.750;5.888;2022-12-07T16:05:05;6.30;;;3.20;;
32319;SDS011;19080;51.750;5.888;2022-12-07T16:07:32;3.45;;;2.58;;
32319;SDS011;19080;51.750;5.888;2022-12-07T16:09:59;3.38;;;1.17;;
32319;SDS011;19080;51.750;5.888;2022-12-07T16:12:25;7.35;;;2.35;;
32319;SDS011;19080;51.750;5.888;2022-12-07T16:14:52;5.75;;;3.70;;
32319;SDS011;19080;51.750;5.888;2022-12-07T16:17:19;5.07;;;2.22;;
32319;SDS011;19080;51.750;5.888;2022-12-07T16:19:45;5.22;;;2.40;;
32319;SDS011;19080;51.750;5.888;2022-12-07T16:22:12;5.40;;;2.28;;
32319;SDS011;19080;51.750;5.888;2022-12-07T16:24:38;9.20;;;3.28;;
32319;SDS011;19080;51.750;5.888;2022-12-07T16:27:05;4.93;;;2.70;;
32319;SDS011;19080;51.750;5.888;2022-12-07T16:29:32;4.63;;;2.53;;
32319;SDS011;19080;51.750;5.888;2022-12-07T16:31:58;4.32;;;2.40;;
32319;SDS011;19080;51.750;5.888;2022-12-07T16:34:25;6.50;;;2.80;;
32319;SDS011;19080;51.750;5.888;2022-12-07T16:36:51;11.13;;;5.38;;
32319;SDS011;19080;51.750;5.888;2022-12-07T16:39:33;7.50;;;3.87;;
32319;SDS011;19080;51.750;5.888;2022-12-07T16:42:00;7.35;;;3.97;;
32319;SDS011;19080;51.750;5.888;2022-12-07T16:44:27;8.30;;;4.78;;
32319;SDS011;19080;51.750;5.888;2022-12-07T16:46:54;5.28;;;3.17;;
32319;SDS011;19080;51.750;5.888;2022-12-07T16:49:21;3.13;;;2.53;;
32319;SDS011;19080;51.750;5.888;2022-12-07T16:51:50;5.50;;;2.83;;
32319;SDS011;19080;51.750;5.888;2022-12-07T16:54:37;6.03;;;4.20;;
32319;SDS011;19080;51.750;5.888;2022-12-07T16:57:04;12.32;;;7.30;;
32319;SDS011;19080;51.750;5.888;2022-12-07T16:59:30;9.90;;;5.13;;
32319;SDS011;19080;51.750;5.888;2022-12-07T17:01:57;7.70;;;4.30;;
32319;SDS011;19080;51.750;5.888;2022-12-07T17:04:24;6.80;;;4.13;;
32319;SDS011;19080;51.750;5.888;2022-12-07T17:06:50;7.70;;;4.18;;
32319;SDS011;19080;51.750;5.888;2022-12-07T17:09:17;8.20;;;5.20;;
32319;SDS011;19080;51.750;5.888;2022-12-07T17:11:47;8.82;;;5.95;;
32319;SDS011;19080;51.750;5.888;2022-12-07T17:14:14;31.65;;;17.60;;
32319;SDS011;19080;51.750;5.888;2022-12-07T17:16:59;36.97;;;18.98;;